sensor_id;sensor_type;location;lat;lon;timestamp;temperature;humidity
72650;SHT31;61467;50.674;4.618;2024-02-23T00:01:54;6.32;79.66
72650;SHT31;61467;50.674;4.618;2024-02-23T00:04:21;6.24;78.97
72650;SHT31;61467;50.674;4.618;2024-02-23T00:06:49;6.23;78.64
72650;SHT31;61467;50.674;4.618;2024-02-23T00:09:16;6.12;79.19
72650;SHT31;61467;50.674;4.618;2024-02-23T00:11:43;6.02;79.09
72650;SHT31;61467;50.674;4.618;2024-02-23T00:14:10;5.89;78.88
72650;SHT31;61467;50.674;4.618;2024-02-23T00:16:38;5.85;79.14
72650;SHT31;61467;50.674;4.618;2024-02-23T00:19:07;5.96;78.96
72650;SHT31;61467;50.674;4.618;2024-02-23T00:21:35;6.19;78.51
72650;SHT31;61467;50.674;4.618;2024-02-23T00:24:04;6.14;77.96
72650;SHT31;61467;50.674;4.618;2024-02-23T00:26:31;6.10;78.83
72650;SHT31;61467;50.674;4.618;2024-02-23T00:28:57;5.82;79.15
72650;SHT31;61467;50.674;4.618;2024-02-23T00:31:24;6.01;79.05
72650;SHT31;61467;50.674;4.618;2024-02-23T00:33:51;6.01;78.87
72650;SHT31;61467;50.674;4.618;2024-02-23T00:36:18;6.16;78.22
72650;SHT31;61467;50.674;4.618;2024-02-23T00:38:45;6.14;78.56
72650;SHT31;61467;50.674;4.618;2024-02-23T00:41:13;5.99;78.35
72650;SHT31;61467;50.674;4.618;2024-02-23T00:43:40;5.92;78.55
72650;SHT31;61467;50.674;4.618;2024-02-23T00:46:07;5.85;78.78
72650;SHT31;61467;50.674;4.618;2024-02-23T00:48:34;6.05;78.29
72650;SHT31;61467;50.674;4.618;2024-02-23T00:51:01;6.09;78.05
72650;SHT31;61467;50.674;4.618;2024-02-23T00:53:30;6.03;78.47
72650;SHT31;61467;50.674;4.618;2024-02-23T00:55:57;5.79;78.82
72650;SHT31;61467;50.674;4.618;2024-02-23T00:58:25;5.91;78.87
72650;SHT31;61467;50.674;4.618;2024-02-23T01:00:51;5.75;79.20
72650;SHT31;61467;50.674;4.618;2024-02-23T01:03:19;5.79;79.24
72650;SHT31;61467;50.674;4.618;2024-02-23T01:05:46;5.81;79.33
72650;SHT31;61467;50.674;4.618;2024-02-23T01:08:14;5.81;78.79
72650;SHT31;61467;50.674;4.618;2024-02-23T01:10:41;5.81;79.25
72650;SHT31;61467;50.674;4.618;2024-02-23T01:13:08;6.06;78.35
72650;SHT31;61467;50.674;4.618;2024-02-23T01:15:36;6.06;77.54
72650;SHT31;61467;50.674;4.618;2024-02-23T01:18:03;5.88;77.98
72650;SHT31;61467;50.674;4.618;2024-02-23T01:20:31;5.85;77.66
72650;SHT31;61467;50.674;4.618;2024-02-23T01:22:58;5.83;78.01
72650;SHT31;61467;50.674;4.618;2024-02-23T01:25:24;5.72;77.89
72650;SHT31;61467;50.674;4.618;2024-02-23T01:27:51;5.88;77.77
72650;SHT31;61467;50.674;4.618;2024-02-23T01:30:18;5.88;77.67
72650;SHT31;61467;50.674;4.618;2024-02-23T01:32:46;5.85;77.41
72650;SHT31;61467;50.674;4.618;2024-02-23T01:35:13;5.92;77.13
72650;SHT31;61467;50.674;4.618;2024-02-23T01:37:40;5.83;77.41
72650;SHT31;61467;50.674;4.618;2024-02-23T01:40:07;5.89;77.85
72650;SHT31;61467;50.674;4.618;2024-02-23T01:42:34;5.96;77.52
72650;SHT31;61467;50.674;4.618;2024-02-23T01:45:01;5.93;77.39
72650;SHT31;61467;50.674;4.618;2024-02-23T01:47:29;6.05;77.63
72650;SHT31;61467;50.674;4.618;2024-02-23T01:49:59;5.88;77.95
72650;SHT31;61467;50.674;4.618;2024-02-23T01:52:27;6.07;77.72
72650;SHT31;61467;50.674;4.618;2024-02-23T01:54:54;6.10;76.77
72650;SHT31;61467;50.674;4.618;2024-02-23T01:57:21;5.92;77.71
72650;SHT31;61467;50.674;4.618;2024-02-23T01:59:49;5.96;77.45
72650;SHT31;61467;50.674;4.618;2024-02-23T02:02:16;5.93;77.63
72650;SHT31;61467;50.674;4.618;2024-02-23T02:04:43;5.82;78.44
72650;SHT31;61467;50.674;4.618;2024-02-23T02:07:11;6.05;77.76
72650;SHT31;61467;50.674;4.618;2024-02-23T02:09:38;6.02;78.52
72650;SHT31;61467;50.674;4.618;2024-02-23T02:12:05;6.01;77.80
72650;SHT31;61467;50.674;4.618;2024-02-23T02:14:32;5.99;77.70
72650;SHT31;61467;50.674;4.618;2024-02-23T02:16:59;5.96;77.92
72650;SHT31;61467;50.674;4.618;2024-02-23T02:19:26;6.01;78.24
72650;SHT31;61467;50.674;4.618;2024-02-23T02:21:52;5.76;78.57
72650;SHT31;61467;50.674;4.618;2024-02-23T02:24:21;6.01;78.18
72650;SHT31;61467;50.674;4.618;2024-02-23T02:26:47;5.86;77.95
72650;SHT31;61467;50.674;4.618;2024-02-23T02:29:15;5.82;78.62
72650;SHT31;61467;50.674;4.618;2024-02-23T02:31:42;5.82;78.55
72650;SHT31;61467;50.674;4.618;2024-02-23T02:34:09;5.92;78.19
72650;SHT31;61467;50.674;4.618;2024-02-23T02:36:39;6.05;77.77
72650;SHT31;61467;50.674;4.618;2024-02-23T02:39:05;5.75;78.33
72650;SHT31;61467;50.674;4.618;2024-02-23T02:41:34;5.88;78.06
72650;SHT31;61467;50.674;4.618;2024-02-23T02:44:01;6.07;77.50
72650;SHT31;61467;50.674;4.618;2024-02-23T02:46:27;6.07;77.32
72650;SHT31;61467;50.674;4.618;2024-02-23T02:48:54;6.23;77.03
72650;SHT31;61467;50.674;4.618;2024-02-23T02:51:21;6.05;77.38
72650;SHT31;61467;50.674;4.618;2024-02-23T02:53:48;5.89;77.53
72650;SHT31;61467;50.674;4.618;2024-02-23T02:56:14;6.10;76.93
72650;SHT31;61467;50.674;4.618;2024-02-23T02:58:42;6.06;77.01
72650;SHT31;61467;50.674;4.618;2024-02-23T03:01:09;6.09;77.17
72650;SHT31;61467;50.674;4.618;2024-02-23T03:03:36;6.19;76.46
72650;SHT31;61467;50.674;4.618;2024-02-23T03:06:03;6.06;77.26
72650;SHT31;61467;50.674;4.618;2024-02-23T03:08:31;6.17;76.61
72650;SHT31;61467;50.674;4.618;2024-02-23T03:10:57;6.22;76.11
72650;SHT31;61467;50.674;4.618;2024-02-23T03:13:24;6.27;76.24
72650;SHT31;61467;50.674;4.618;2024-02-23T03:15:52;6.32;76.20
72650;SHT31;61467;50.674;4.618;2024-02-23T03:18:19;6.22;76.55
72650;SHT31;61467;50.674;4.618;2024-02-23T03:20:46;6.23;76.14
72650;SHT31;61467;50.674;4.618;2024-02-23T03:23:13;5.99;76.98
72650;SHT31;61467;50.674;4.618;2024-02-23T03:25:40;6.14;75.84
72650;SHT31;61467;50.674;4.618;2024-02-23T03:28:06;6.07;76.50
72650;SHT31;61467;50.674;4.618;2024-02-23T03:30:34;6.19;76.29
72650;SHT31;61467;50.674;4.618;2024-02-23T03:33:02;6.12;76.67
72650;SHT31;61467;50.674;4.618;2024-02-23T03:35:29;6.22;76.42
72650;SHT31;61467;50.674;4.618;2024-02-23T03:37:55;5.91;76.98
72650;SHT31;61467;50.674;4.618;2024-02-23T03:40:22;5.85;77.04
72650;SHT31;61467;50.674;4.618;2024-02-23T03:42:49;6.06;76.72
72650;SHT31;61467;50.674;4.618;2024-02-23T03:45:16;6.07;76.72
72650;SHT31;61467;50.674;4.618;2024-02-23T03:47:42;6.09;76.58
72650;SHT31;61467;50.674;4.618;2024-02-23T03:50:13;6.09;76.84
72650;SHT31;61467;50.674;4.618;2024-02-23T03:52:40;6.12;76.97
72650;SHT31;61467;50.674;4.618;2024-02-23T03:55:07;6.20;76.40
72650;SHT31;61467;50.674;4.618;2024-02-23T03:57:34;6.19;76.38
72650;SHT31;61467;50.674;4.618;2024-02-23T04:00:00;5.93;77.10
72650;SHT31;61467;50.674;4.618;2024-02-23T04:02:27;6.13;76.48
72650;SHT31;61467;50.674;4.618;2024-02-23T04:04:55;6.12;76.57
72650;SHT31;61467;50.674;4.618;2024-02-23T04:07:23;6.16;76.18
72650;SHT31;61467;50.674;4.618;2024-02-23T04:09:50;6.26;75.87
72650;SHT31;61467;50.674;4.618;2024-02-23T04:12:20;6.17;76.33
72650;SHT31;61467;50.674;4.618;2024-02-23T04:14:47;6.23;75.62
72650;SHT31;61467;50.674;4.618;2024-02-23T04:17:14;6.19;76.18
72650;SHT31;61467;50.674;4.618;2024-02-23T04:19:41;6.10;76.20
72650;SHT31;61467;50.674;4.618;2024-02-23T04:22:08;5.98;76.26
72650;SHT31;61467;50.674;4.618;2024-02-23T04:24:38;6.07;76.56
72650;SHT31;61467;50.674;4.618;2024-02-23T04:27:05;6.17;76.16
72650;SHT31;61467;50.674;4.618;2024-02-23T04:29:32;6.01;76.62
72650;SHT31;61467;50.674;4.618;2024-02-23T04:31:59;6.19;76.21
72650;SHT31;61467;50.674;4.618;2024-02-23T04:34:27;6.03;76.61
72650;SHT31;61467;50.674;4.618;2024-02-23T04:36:54;5.99;76.73
72650;SHT31;61467;50.674;4.618;2024-02-23T04:39:21;5.95;76.85
72650;SHT31;61467;50.674;4.618;2024-02-23T04:41:49;5.93;76.80
72650;SHT31;61467;50.674;4.618;2024-02-23T04:44:16;6.12;76.59
72650;SHT31;61467;50.674;4.618;2024-02-23T04:46:43;6.26;74.88
72650;SHT31;61467;50.674;4.618;2024-02-23T04:49:10;6.13;75.70
72650;SHT31;61467;50.674;4.618;2024-02-23T04:51:38;6.30;75.03
72650;SHT31;61467;50.674;4.618;2024-02-23T04:54:05;6.22;75.62
72650;SHT31;61467;50.674;4.618;2024-02-23T04:56:32;6.40;74.45
72650;SHT31;61467;50.674;4.618;2024-02-23T04:59:01;6.24;75.01
72650;SHT31;61467;50.674;4.618;2024-02-23T05:01:27;6.20;75.13
72650;SHT31;61467;50.674;4.618;2024-02-23T05:03:54;6.30;74.98
72650;SHT31;61467;50.674;4.618;2024-02-23T05:06:21;6.40;74.67
72650;SHT31;61467;50.674;4.618;2024-02-23T05:08:48;6.48;73.95
72650;SHT31;61467;50.674;4.618;2024-02-23T05:11:14;6.33;74.86
72650;SHT31;61467;50.674;4.618;2024-02-23T05:13:42;6.37;74.77
72650;SHT31;61467;50.674;4.618;2024-02-23T05:16:10;6.48;74.25
72650;SHT31;61467;50.674;4.618;2024-02-23T05:18:38;6.16;75.33
72650;SHT31;61467;50.674;4.618;2024-02-23T05:21:05;6.16;74.85
72650;SHT31;61467;50.674;4.618;2024-02-23T05:23:32;6.16;75.81
72650;SHT31;61467;50.674;4.618;2024-02-23T05:25:59;6.24;75.75
72650;SHT31;61467;50.674;4.618;2024-02-23T05:28:26;6.29;75.43
72650;SHT31;61467;50.674;4.618;2024-02-23T05:30:54;6.01;75.15
72650;SHT31;61467;50.674;4.618;2024-02-23T05:33:23;6.07;75.06
72650;SHT31;61467;50.674;4.618;2024-02-23T05:35:49;5.99;75.84
72650;SHT31;61467;50.674;4.618;2024-02-23T05:38:16;6.10;75.25
72650;SHT31;61467;50.674;4.618;2024-02-23T05:40:44;6.22;75.53
72650;SHT31;61467;50.674;4.618;2024-02-23T05:43:11;6.10;75.64
72650;SHT31;61467;50.674;4.618;2024-02-23T05:45:38;6.14;75.20
72650;SHT31;61467;50.674;4.618;2024-02-23T05:48:05;6.20;75.16
72650;SHT31;61467;50.674;4.618;2024-02-23T05:50:34;6.16;75.27
72650;SHT31;61467;50.674;4.618;2024-02-23T05:53:01;6.19;75.32
72650;SHT31;61467;50.674;4.618;2024-02-23T05:55:29;6.24;75.05
72650;SHT31;61467;50.674;4.618;2024-02-23T05:57:56;6.19;75.30
72650;SHT31;61467;50.674;4.618;2024-02-23T06:00:23;6.32;74.72
72650;SHT31;61467;50.674;4.618;2024-02-23T06:02:50;6.22;75.65
72650;SHT31;61467;50.674;4.618;2024-02-23T06:05:17;6.12;75.92
72650;SHT31;61467;50.674;4.618;2024-02-23T06:07:45;6.07;75.94
72650;SHT31;61467;50.674;4.618;2024-02-23T06:10:12;6.07;75.36
72650;SHT31;61467;50.674;4.618;2024-02-23T06:12:39;6.12;76.08
72650;SHT31;61467;50.674;4.618;2024-02-23T06:15:06;6.13;75.74
72650;SHT31;61467;50.674;4.618;2024-02-23T06:17:35;6.27;75.33
72650;SHT31;61467;50.674;4.618;2024-02-23T06:20:03;6.26;75.30
72650;SHT31;61467;50.674;4.618;2024-02-23T06:22:30;6.37;75.11
72650;SHT31;61467;50.674;4.618;2024-02-23T06:24:59;6.23;75.17
72650;SHT31;61467;50.674;4.618;2024-02-23T06:27:26;6.19;74.87
72650;SHT31;61467;50.674;4.618;2024-02-23T06:29:53;6.20;74.95
72650;SHT31;61467;50.674;4.618;2024-02-23T06:32:21;6.32;74.52
72650;SHT31;61467;50.674;4.618;2024-02-23T06:34:47;6.27;74.89
72650;SHT31;61467;50.674;4.618;2024-02-23T06:37:14;6.29;74.21
72650;SHT31;61467;50.674;4.618;2024-02-23T06:39:41;6.22;75.42
72650;SHT31;61467;50.674;4.618;2024-02-23T06:42:09;6.34;74.57
72650;SHT31;61467;50.674;4.618;2024-02-23T06:44:36;6.27;74.73
72650;SHT31;61467;50.674;4.618;2024-02-23T06:47:03;6.33;74.82
72650;SHT31;61467;50.674;4.618;2024-02-23T06:49:29;6.40;74.54
72650;SHT31;61467;50.674;4.618;2024-02-23T06:51:56;6.51;74.46
72650;SHT31;61467;50.674;4.618;2024-02-23T06:54:23;6.40;74.90
72650;SHT31;61467;50.674;4.618;2024-02-23T06:56:50;6.48;75.26
72650;SHT31;61467;50.674;4.618;2024-02-23T06:59:18;6.54;75.00
72650;SHT31;61467;50.674;4.618;2024-02-23T07:01:48;6.58;74.02
72650;SHT31;61467;50.674;4.618;2024-02-23T07:04:15;6.40;74.39
72650;SHT31;61467;50.674;4.618;2024-02-23T07:06:42;6.60;74.13
72650;SHT31;61467;50.674;4.618;2024-02-23T07:09:09;6.64;74.28
72650;SHT31;61467;50.674;4.618;2024-02-23T07:11:36;6.72;73.76
72650;SHT31;61467;50.674;4.618;2024-02-23T07:14:03;6.47;74.68
72650;SHT31;61467;50.674;4.618;2024-02-23T07:16:32;6.68;74.30
72650;SHT31;61467;50.674;4.618;2024-02-23T07:18:58;6.54;74.63
72650;SHT31;61467;50.674;4.618;2024-02-23T07:21:25;6.53;74.38
72650;SHT31;61467;50.674;4.618;2024-02-23T07:23:52;6.51;75.01
72650;SHT31;61467;50.674;4.618;2024-02-23T07:26:19;6.48;74.97
72650;SHT31;61467;50.674;4.618;2024-02-23T07:28:47;6.74;75.30
72650;SHT31;61467;50.674;4.618;2024-02-23T07:31:15;6.51;75.13
72650;SHT31;61467;50.674;4.618;2024-02-23T07:33:44;6.58;75.44
72650;SHT31;61467;50.674;4.618;2024-02-23T07:36:14;6.55;75.14
72650;SHT31;61467;50.674;4.618;2024-02-23T07:38:40;6.48;75.34
72650;SHT31;61467;50.674;4.618;2024-02-23T07:41:09;6.47;75.29
72650;SHT31;61467;50.674;4.618;2024-02-23T07:43:36;6.60;74.92
72650;SHT31;61467;50.674;4.618;2024-02-23T07:46:03;6.50;75.08
72650;SHT31;61467;50.674;4.618;2024-02-23T07:48:33;6.45;76.23
72650;SHT31;61467;50.674;4.618;2024-02-23T07:51:02;6.44;75.42
72650;SHT31;61467;50.674;4.618;2024-02-23T07:53:29;6.61;75.60
72650;SHT31;61467;50.674;4.618;2024-02-23T07:55:56;6.68;74.96
72650;SHT31;61467;50.674;4.618;2024-02-23T07:58:25;6.72;75.25
72650;SHT31;61467;50.674;4.618;2024-02-23T08:00:52;6.88;74.05
72650;SHT31;61467;50.674;4.618;2024-02-23T08:03:19;6.63;74.92
72650;SHT31;61467;50.674;4.618;2024-02-23T08:05:46;6.68;74.65
72650;SHT31;61467;50.674;4.618;2024-02-23T08:08:14;6.71;74.87
72650;SHT31;61467;50.674;4.618;2024-02-23T08:10:41;6.70;75.72
72650;SHT31;61467;50.674;4.618;2024-02-23T08:13:08;6.63;76.30
72650;SHT31;61467;50.674;4.618;2024-02-23T08:15:36;6.70;76.81
72650;SHT31;61467;50.674;4.618;2024-02-23T08:18:03;6.51;77.84
72650;SHT31;61467;50.674;4.618;2024-02-23T08:20:31;6.36;78.57
72650;SHT31;61467;50.674;4.618;2024-02-23T08:22:57;6.22;79.74
72650;SHT31;61467;50.674;4.618;2024-02-23T08:25:26;6.38;80.17
72650;SHT31;61467;50.674;4.618;2024-02-23T08:27:55;6.40;80.37
72650;SHT31;61467;50.674;4.618;2024-02-23T08:30:24;6.51;80.41
72650;SHT31;61467;50.674;4.618;2024-02-23T08:32:50;6.57;79.47
72650;SHT31;61467;50.674;4.618;2024-02-23T08:35:17;6.36;80.69
72650;SHT31;61467;50.674;4.618;2024-02-23T08:37:44;6.40;81.00
72650;SHT31;61467;50.674;4.618;2024-02-23T08:40:11;6.38;80.25
72650;SHT31;61467;50.674;4.618;2024-02-23T08:42:39;6.37;81.04
72650;SHT31;61467;50.674;4.618;2024-02-23T08:45:08;6.12;81.46
72650;SHT31;61467;50.674;4.618;2024-02-23T08:47:38;5.95;82.29
72650;SHT31;61467;50.674;4.618;2024-02-23T08:50:06;6.12;82.35
72650;SHT31;61467;50.674;4.618;2024-02-23T08:52:33;6.02;82.91
72650;SHT31;61467;50.674;4.618;2024-02-23T08:54:59;6.41;81.69
72650;SHT31;61467;50.674;4.618;2024-02-23T08:57:27;6.57;81.67
72650;SHT31;61467;50.674;4.618;2024-02-23T08:59:55;6.65;81.57
72650;SHT31;61467;50.674;4.618;2024-02-23T09:02:23;6.54;81.48
72650;SHT31;61467;50.674;4.618;2024-02-23T09:04:50;6.38;81.71
72650;SHT31;61467;50.674;4.618;2024-02-23T09:07:16;6.51;81.84
72650;SHT31;61467;50.674;4.618;2024-02-23T09:09:45;6.55;81.14
72650;SHT31;61467;50.674;4.618;2024-02-23T09:12:12;6.44;81.89
72650;SHT31;61467;50.674;4.618;2024-02-23T09:14:41;6.37;82.31
72650;SHT31;61467;50.674;4.618;2024-02-23T09:17:10;6.60;81.60
72650;SHT31;61467;50.674;4.618;2024-02-23T09:19:37;6.58;81.69
72650;SHT31;61467;50.674;4.618;2024-02-23T09:22:05;6.47;82.21
72650;SHT31;61467;50.674;4.618;2024-02-23T09:24:31;6.41;82.13
72650;SHT31;61467;50.674;4.618;2024-02-23T09:26:58;6.48;82.02
72650;SHT31;61467;50.674;4.618;2024-02-23T09:29:25;6.30;81.85
72650;SHT31;61467;50.674;4.618;2024-02-23T09:31:52;6.36;81.66
72650;SHT31;61467;50.674;4.618;2024-02-23T09:34:20;6.55;80.52
72650;SHT31;61467;50.674;4.618;2024-02-23T09:36:47;6.51;80.44
72650;SHT31;61467;50.674;4.618;2024-02-23T09:39:14;6.54;80.74
72650;SHT31;61467;50.674;4.618;2024-02-23T09:41:42;6.77;80.32
72650;SHT31;61467;50.674;4.618;2024-02-23T09:44:09;6.70;80.09
72650;SHT31;61467;50.674;4.618;2024-02-23T09:46:37;6.78;79.23
72650;SHT31;61467;50.674;4.618;2024-02-23T09:49:04;6.87;78.27
72650;SHT31;61467;50.674;4.618;2024-02-23T09:51:35;6.91;78.98
72650;SHT31;61467;50.674;4.618;2024-02-23T09:54:03;6.88;79.69
72650;SHT31;61467;50.674;4.618;2024-02-23T09:56:30;6.77;79.95
72650;SHT31;61467;50.674;4.618;2024-02-23T09:59:01;6.84;80.26
72650;SHT31;61467;50.674;4.618;2024-02-23T10:01:29;6.85;80.23
72650;SHT31;61467;50.674;4.618;2024-02-23T10:03:59;6.75;81.15
72650;SHT31;61467;50.674;4.618;2024-02-23T10:06:27;6.99;80.73
72650;SHT31;61467;50.674;4.618;2024-02-23T10:08:56;6.96;80.77
72650;SHT31;61467;50.674;4.618;2024-02-23T10:11:24;6.98;80.97
72650;SHT31;61467;50.674;4.618;2024-02-23T10:13:51;7.02;80.62
72650;SHT31;61467;50.674;4.618;2024-02-23T10:16:18;7.06;80.83
72650;SHT31;61467;50.674;4.618;2024-02-23T10:18:46;6.89;81.16
72650;SHT31;61467;50.674;4.618;2024-02-23T10:21:15;6.96;81.39
72650;SHT31;61467;50.674;4.618;2024-02-23T10:23:42;6.94;82.11
72650;SHT31;61467;50.674;4.618;2024-02-23T10:26:10;6.98;80.86
72650;SHT31;61467;50.674;4.618;2024-02-23T10:28:45;7.13;80.76
72650;SHT31;61467;50.674;4.618;2024-02-23T10:31:11;6.92;81.57
72650;SHT31;61467;50.674;4.618;2024-02-23T10:33:38;6.89;81.16
72650;SHT31;61467;50.674;4.618;2024-02-23T10:36:07;6.94;80.61
72650;SHT31;61467;50.674;4.618;2024-02-23T10:38:35;6.94;80.92
72650;SHT31;61467;50.674;4.618;2024-02-23T10:41:05;7.08;80.72
72650;SHT31;61467;50.674;4.618;2024-02-23T10:43:40;7.29;79.94
72650;SHT31;61467;50.674;4.618;2024-02-23T10:46:08;7.03;80.49
72650;SHT31;61467;50.674;4.618;2024-02-23T10:48:39;7.34;79.21
72650;SHT31;61467;50.674;4.618;2024-02-23T10:51:07;7.40;79.45
72650;SHT31;61467;50.674;4.618;2024-02-23T10:53:36;7.33;79.73
72650;SHT31;61467;50.674;4.618;2024-02-23T10:56:04;7.26;79.32
72650;SHT31;61467;50.674;4.618;2024-02-23T10:58:32;7.23;80.52
72650;SHT31;61467;50.674;4.618;2024-02-23T11:01:01;7.34;80.86
72650;SHT31;61467;50.674;4.618;2024-02-23T11:03:29;7.40;80.62
72650;SHT31;61467;50.674;4.618;2024-02-23T11:05:56;7.63;80.17
72650;SHT31;61467;50.674;4.618;2024-02-23T11:08:23;7.47;80.53
72650;SHT31;61467;50.674;4.618;2024-02-23T11:10:50;7.71;79.82
72650;SHT31;61467;50.674;4.618;2024-02-23T11:13:18;7.63;78.71
72650;SHT31;61467;50.674;4.618;2024-02-23T11:15:45;7.63;79.37
72650;SHT31;61467;50.674;4.618;2024-02-23T11:18:22;7.77;78.84
72650;SHT31;61467;50.674;4.618;2024-02-23T11:20:54;8.05;78.46
72650;SHT31;61467;50.674;4.618;2024-02-23T11:23:21;8.11;77.68
72650;SHT31;61467;50.674;4.618;2024-02-23T11:26:07;8.02;77.29
72650;SHT31;61467;50.674;4.618;2024-02-23T11:28:42;8.36;77.43
72650;SHT31;61467;50.674;4.618;2024-02-23T11:31:12;8.63;78.07
72650;SHT31;61467;50.674;4.618;2024-02-23T11:33:40;8.67;76.75
72650;SHT31;61467;50.674;4.618;2024-02-23T11:36:22;8.88;76.28
72650;SHT31;61467;50.674;4.618;2024-02-23T11:38:52;9.36;73.77
72650;SHT31;61467;50.674;4.618;2024-02-23T11:41:20;9.41;73.26
72650;SHT31;61467;50.674;4.618;2024-02-23T11:43:49;9.18;72.59
72650;SHT31;61467;50.674;4.618;2024-02-23T11:46:17;9.10;73.01
72650;SHT31;61467;50.674;4.618;2024-02-23T11:48:45;9.30;72.39
72650;SHT31;61467;50.674;4.618;2024-02-23T11:51:13;9.31;72.51
72650;SHT31;61467;50.674;4.618;2024-02-23T11:53:41;9.44;72.75
72650;SHT31;61467;50.674;4.618;2024-02-23T11:56:09;9.41;71.30
72650;SHT31;61467;50.674;4.618;2024-02-23T11:58:36;9.56;71.09
72650;SHT31;61467;50.674;4.618;2024-02-23T12:01:03;9.52;71.27
72650;SHT31;61467;50.674;4.618;2024-02-23T12:03:32;9.23;70.24
72650;SHT31;61467;50.674;4.618;2024-02-23T12:06:01;8.94;71.43
72650;SHT31;61467;50.674;4.618;2024-02-23T12:08:30;8.91;71.24
72650;SHT31;61467;50.674;4.618;2024-02-23T12:11:03;8.87;71.91
72650;SHT31;61467;50.674;4.618;2024-02-23T12:13:30;8.94;71.53
72650;SHT31;61467;50.674;4.618;2024-02-23T12:15:58;9.35;71.50
72650;SHT31;61467;50.674;4.618;2024-02-23T12:18:25;9.39;70.93
72650;SHT31;61467;50.674;4.618;2024-02-23T12:20:59;9.35;71.03
72650;SHT31;61467;50.674;4.618;2024-02-23T12:23:27;9.23;69.95
72650;SHT31;61467;50.674;4.618;2024-02-23T12:25:54;9.52;70.28
72650;SHT31;61467;50.674;4.618;2024-02-23T12:28:21;9.81;70.01
72650;SHT31;61467;50.674;4.618;2024-02-23T12:30:58;9.78;69.47
72650;SHT31;61467;50.674;4.618;2024-02-23T12:33:27;9.51;69.08
72650;SHT31;61467;50.674;4.618;2024-02-23T12:35:55;9.56;69.41
72650;SHT31;61467;50.674;4.618;2024-02-23T12:38:22;9.31;69.08
72650;SHT31;61467;50.674;4.618;2024-02-23T12:40:52;9.10;70.06
72650;SHT31;61467;50.674;4.618;2024-02-23T12:43:19;9.08;69.98
72650;SHT31;61467;50.674;4.618;2024-02-23T12:45:47;9.00;70.01
72650;SHT31;61467;50.674;4.618;2024-02-23T12:48:14;8.80;70.32
72650;SHT31;61467;50.674;4.618;2024-02-23T12:50:43;8.99;70.33
72650;SHT31;61467;50.674;4.618;2024-02-23T12:53:12;9.10;70.95
72650;SHT31;61467;50.674;4.618;2024-02-23T12:55:57;9.24;70.86
72650;SHT31;61467;50.674;4.618;2024-02-23T12:58:24;9.51;69.15
72650;SHT31;61467;50.674;4.618;2024-02-23T13:00:52;9.69;68.45
72650;SHT31;61467;50.674;4.618;2024-02-23T13:03:19;9.63;68.51
72650;SHT31;61467;50.674;4.618;2024-02-23T13:05:46;9.75;68.02
72650;SHT31;61467;50.674;4.618;2024-02-23T13:08:13;9.81;68.25
72650;SHT31;61467;50.674;4.618;2024-02-23T13:10:40;10.04;66.75
72650;SHT31;61467;50.674;4.618;2024-02-23T13:13:08;10.07;66.39
72650;SHT31;61467;50.674;4.618;2024-02-23T13:15:35;9.89;65.97
72650;SHT31;61467;50.674;4.618;2024-02-23T13:18:03;9.69;65.91
72650;SHT31;61467;50.674;4.618;2024-02-23T13:20:30;9.44;66.40
72650;SHT31;61467;50.674;4.618;2024-02-23T13:22:57;9.52;66.50
72650;SHT31;61467;50.674;4.618;2024-02-23T13:25:23;9.45;66.66
72650;SHT31;61467;50.674;4.618;2024-02-23T13:27:50;9.68;66.41
72650;SHT31;61467;50.674;4.618;2024-02-23T13:30:19;9.72;66.57
72650;SHT31;61467;50.674;4.618;2024-02-23T13:32:45;9.62;66.41
72650;SHT31;61467;50.674;4.618;2024-02-23T13:35:12;9.42;67.17
72650;SHT31;61467;50.674;4.618;2024-02-23T13:37:40;9.75;66.62
72650;SHT31;61467;50.674;4.618;2024-02-23T13:40:08;9.82;66.67
72650;SHT31;61467;50.674;4.618;2024-02-23T13:42:37;9.72;67.08
72650;SHT31;61467;50.674;4.618;2024-02-23T13:45:06;9.76;66.78
72650;SHT31;61467;50.674;4.618;2024-02-23T13:47:35;9.58;66.11
72650;SHT31;61467;50.674;4.618;2024-02-23T13:50:03;9.65;65.97
72650;SHT31;61467;50.674;4.618;2024-02-23T13:52:30;9.38;65.97
72650;SHT31;61467;50.674;4.618;2024-02-23T13:54:56;9.73;65.17
72650;SHT31;61467;50.674;4.618;2024-02-23T13:57:23;9.63;65.01
72650;SHT31;61467;50.674;4.618;2024-02-23T13:59:50;9.59;65.21
72650;SHT31;61467;50.674;4.618;2024-02-23T14:02:24;9.42;66.38
72650;SHT31;61467;50.674;4.618;2024-02-23T14:04:53;9.41;65.66
72650;SHT31;61467;50.674;4.618;2024-02-23T14:07:20;9.31;65.73
72650;SHT31;61467;50.674;4.618;2024-02-23T14:09:47;9.58;65.56
72650;SHT31;61467;50.674;4.618;2024-02-23T14:12:14;9.79;65.78
72650;SHT31;61467;50.674;4.618;2024-02-23T14:14:41;9.76;65.84
72650;SHT31;61467;50.674;4.618;2024-02-23T14:17:07;9.61;66.49
72650;SHT31;61467;50.674;4.618;2024-02-23T14:19:34;9.65;65.24
72650;SHT31;61467;50.674;4.618;2024-02-23T14:22:03;9.45;65.65
72650;SHT31;61467;50.674;4.618;2024-02-23T14:24:30;9.39;65.37
72650;SHT31;61467;50.674;4.618;2024-02-23T14:26:57;9.42;64.22
72650;SHT31;61467;50.674;4.618;2024-02-23T14:29:24;9.59;65.04
72650;SHT31;61467;50.674;4.618;2024-02-23T14:31:51;9.82;63.46
72650;SHT31;61467;50.674;4.618;2024-02-23T14:34:17;9.51;63.83
72650;SHT31;61467;50.674;4.618;2024-02-23T14:36:45;9.71;63.86
72650;SHT31;61467;50.674;4.618;2024-02-23T14:39:13;9.61;64.01
72650;SHT31;61467;50.674;4.618;2024-02-23T14:41:40;9.51;65.52
72650;SHT31;61467;50.674;4.618;2024-02-23T14:44:08;9.72;64.12
72650;SHT31;61467;50.674;4.618;2024-02-23T14:46:34;9.78;63.86
72650;SHT31;61467;50.674;4.618;2024-02-23T14:49:01;9.59;65.01
72650;SHT31;61467;50.674;4.618;2024-02-23T14:51:28;9.38;65.86
72650;SHT31;61467;50.674;4.618;2024-02-23T14:53:55;9.66;65.11
72650;SHT31;61467;50.674;4.618;2024-02-23T14:56:23;9.59;65.04
72650;SHT31;61467;50.674;4.618;2024-02-23T14:58:50;9.48;65.74
72650;SHT31;61467;50.674;4.618;2024-02-23T15:01:17;9.51;65.61
72650;SHT31;61467;50.674;4.618;2024-02-23T15:03:43;9.38;66.60
72650;SHT31;61467;50.674;4.618;2024-02-23T15:06:10;9.35;66.93
72650;SHT31;61467;50.674;4.618;2024-02-23T15:08:37;9.44;67.22
72650;SHT31;61467;50.674;4.618;2024-02-23T15:11:04;9.32;69.95
72650;SHT31;61467;50.674;4.618;2024-02-23T15:13:33;9.46;69.88
72650;SHT31;61467;50.674;4.618;2024-02-23T15:15:59;9.23;71.50
72650;SHT31;61467;50.674;4.618;2024-02-23T15:18:26;9.23;71.55
72650;SHT31;61467;50.674;4.618;2024-02-23T15:20:53;9.01;72.04
72650;SHT31;61467;50.674;4.618;2024-02-23T15:23:20;8.97;71.45
72650;SHT31;61467;50.674;4.618;2024-02-23T15:25:49;9.15;71.71
72650;SHT31;61467;50.674;4.618;2024-02-23T15:28:16;9.49;69.88
72650;SHT31;61467;50.674;4.618;2024-02-23T15:30:49;9.49;69.65
72650;SHT31;61467;50.674;4.618;2024-02-23T15:33:17;9.65;68.95
72650;SHT31;61467;50.674;4.618;2024-02-23T15:35:43;9.63;69.31
72650;SHT31;61467;50.674;4.618;2024-02-23T15:38:10;9.68;69.40
72650;SHT31;61467;50.674;4.618;2024-02-23T15:40:39;9.68;68.23
72650;SHT31;61467;50.674;4.618;2024-02-23T15:43:06;9.73;67.74
72650;SHT31;61467;50.674;4.618;2024-02-23T15:45:33;9.56;68.31
72650;SHT31;61467;50.674;4.618;2024-02-23T15:48:01;9.78;67.31